Terminal Aerodrome Forecast
Issued by NWS Grand Rapids, MI

Home | Current Version | Previous Version | Text Only | Print | Product List | Glossary On
Versions: 1 2 3 4 5 6 7 8 9 10 11 12 13 14 15 16 17 18 19 20 21 22 23 24 25 26
000
FTUS43 KGRR 041334 AAB
TAFGRR
TAF AMD
KGRR 041334Z 0414/0512 28003KT 5SM BR OVC006
     FM041430 VRB04KT P6SM BKN015
     FM041700 26007KT P6SM VCTS BKN025CB
     FM050000 VRB02KT P6SM SCT050=

USA.gov is the U.S. government's official web portal to all federal, state and local government web resources and services.